Gujranwala Weather



Gujranwala's Current Weather

Temprature 19o smoke

smoke

Rain: 0 %

Min Temprature19o
Max Temprature19o
Humidity52
Wind Speed3.1 m/h
Sun Rise06:37:34
Sun Set17:56:02
Current Time: 23-Feb-2019 16:35:38
Lat/Lon: 32.15, 74.19




Gujranwala's Geo Location




Gujranwala's Weather Forecast

Time Overall Temp Min Temp Max Temp Humidity Wind Speed Rain
23-Feb-2019 (Sat)
17:00:00 clear sky 18.350 17.999 18.350 65 1.66 m/h 0 %
20:00:00 clear sky 11.650 11.384 11.650 79 1.22 m/h 0 %
23:00:00 clear sky 8.890 8.715 8.890 84 1.17 m/h 0 %
24-Feb-2019 (Sun)
02:00:00 clear sky 7.420 7.335 7.420 83 1.26 m/h 0 %
05:00:00 clear sky 6.267 6.267 6.267 84 1.21 m/h 0 %
08:00:00 clear sky 8.503 8.503 8.503 85 0.76 m/h 0 %
11:00:00 clear sky 17.099 17.099 17.099 89 1.76 m/h 0 %
14:00:00 clear sky 19.831 19.831 19.831 77 2.02 m/h 0 %
17:00:00 clear sky 19.046 19.046 19.046 56 1.6 m/h 0 %
20:00:00 few clouds 12.168 12.168 12.168 71 1.31 m/h 0 %
23:00:00 scattered clouds 9.486 9.486 9.486 82 1.21 m/h 0 %
25-Feb-2019 (Mon)
02:00:00 scattered clouds 8.705 8.705 8.705 82 1.27 m/h 0 %
05:00:00 broken clouds 8.677 8.677 8.677 82 1.51 m/h 0 %
08:00:00 overcast clouds 10.245 10.245 10.245 72 1.27 m/h 0 %
11:00:00 overcast clouds 15.597 15.597 15.597 76 0.46 m/h 0 %
14:00:00 light rain 17.223 17.223 17.223 71 1.87 m/h 4 %
17:00:00 light rain 16.687 16.687 16.687 63 2.11 m/h 21 %
20:00:00 light rain 11.098 11.098 11.098 84 2.11 m/h 88 %
23:00:00 light rain 10.167 10.167 10.167 95 3.31 m/h 270 %
26-Feb-2019 (Tue)
02:00:00 moderate rain 10.376 10.376 10.376 98 3.36 m/h 603 %
05:00:00 light rain 10.197 10.197 10.197 98 3.86 m/h 222 %
08:00:00 light rain 11.082 11.082 11.082 97 3.47 m/h 7 %
11:00:00 light rain 13.217 13.217 13.217 100 2.77 m/h 10 %
14:00:00 light rain 13.371 13.371 13.371 100 4.21 m/h 86 %
17:00:00 light rain 12.489 12.489 12.489 97 3.71 m/h 87 %
20:00:00 light rain 10.536 10.536 10.536 97 1.77 m/h 26 %
23:00:00 light rain 9.648 9.648 9.648 98 1.07 m/h 3 %
27-Feb-2019 (Wed)
02:00:00 light rain 9.481 9.481 9.481 100 1.66 m/h 137 %
05:00:00 light rain 9.069 9.069 9.069 99 1.75 m/h 37 %
08:00:00 light rain 9.690 9.690 9.690 100 2.47 m/h 12 %
11:00:00 broken clouds 12.720 12.720 12.720 100 3.86 m/h 0 %
14:00:00 light rain 12.961 12.961 12.961 100 2.55 m/h 18 %
17:00:00 light rain 12.498 12.498 12.498 100 3.31 m/h 49 %
20:00:00 few clouds 9.242 9.242 9.242 95 1.92 m/h 0 %
23:00:00 few clouds 7.866 7.866 7.866 92 2.02 m/h 0 %
28-Feb-2019 (Thu)
02:00:00 scattered clouds 6.441 6.441 6.441 90 1.96 m/h 0 %
05:00:00 broken clouds 5.213 5.213 5.213 89 1.21 m/h 0 %
08:00:00 few clouds 7.315 7.315 7.315 89 1.86 m/h 0 %
11:00:00 broken clouds 11.622 11.622 11.622 96 2.06 m/h 0 %
14:00:00 broken clouds 13.979 13.979 13.979 90 1.87 m/h 0 %

Famous Cities (60)